createdAt,value
2023-01-27T00:02:38.848Z,7.46
2023-01-27T00:06:51.230Z,7.50
2023-01-27T00:11:22.102Z,7.52
2023-01-27T00:15:35.415Z,7.53
2023-01-27T00:19:48.233Z,7.55
2023-01-27T00:24:18.986Z,7.80
2023-01-27T00:28:31.521Z,7.93
2023-01-27T00:33:02.188Z,7.90
2023-01-27T00:37:14.925Z,7.90
2023-01-27T00:41:29.210Z,7.83
2023-01-27T00:45:51.480Z,7.77
2023-01-27T00:50:12.915Z,7.72
2023-01-27T00:54:26.470Z,7.70
2023-01-27T00:58:39.387Z,7.67
2023-01-27T01:03:01.107Z,7.75
2023-01-27T01:07:16.561Z,7.76
2023-01-27T01:11:29.483Z,7.89
2023-01-27T01:15:42.818Z,8.01
2023-01-27T01:19:55.156Z,7.97
2023-01-27T01:24:07.557Z,7.64
2023-01-27T01:28:21.574Z,7.49
2023-01-27T01:32:36.592Z,7.58
2023-01-27T01:36:48.986Z,7.61
2023-01-27T01:41:04.104Z,7.72
2023-01-27T01:45:39.610Z,7.58
2023-01-27T01:49:51.935Z,7.37
2023-01-27T01:54:09.837Z,7.14
2023-01-27T01:58:23.720Z,7.24
2023-01-27T02:02:37.414Z,7.29
2023-01-27T02:07:20.399Z,7.23
2023-01-27T02:11:32.897Z,7.21
2023-01-27T02:15:47.896Z,7.18
2023-01-27T02:20:32.200Z,6.82
2023-01-27T02:24:50.972Z,6.78
2023-01-27T02:29:06.686Z,6.68
2023-01-27T02:33:19.100Z,6.89
2023-01-27T02:37:33.232Z,6.72
2023-01-27T02:41:51.463Z,6.65
2023-01-27T02:46:04.541Z,6.56
2023-01-27T02:50:17.980Z,6.60
2023-01-27T02:54:31.201Z,6.56
2023-01-27T02:58:43.863Z,6.56
2023-01-27T03:03:02.420Z,6.48
2023-01-27T03:07:14.791Z,6.38
2023-01-27T03:11:45.439Z,6.40
2023-01-27T03:16:20.226Z,6.37
2023-01-27T03:20:32.584Z,6.39
2023-01-27T03:24:45.054Z,6.36
2023-01-27T03:29:17.172Z,6.43
2023-01-27T03:33:31.878Z,6.51
2023-01-27T03:38:13.213Z,6.54
2023-01-27T03:42:43.919Z,6.51
2023-01-27T03:46:56.251Z,6.54
2023-01-27T03:51:10.255Z,6.52
2023-01-27T03:55:23.447Z,6.48
2023-01-27T03:59:36.232Z,6.50
2023-01-27T04:04:07.802Z,6.56
2023-01-27T04:08:21.349Z,6.56
2023-01-27T04:12:33.743Z,6.53
2023-01-27T04:16:46.723Z,6.57
2023-01-27T04:21:00.867Z,6.57
2023-01-27T04:25:15.698Z,6.57
2023-01-27T04:29:30.911Z,6.61
2023-01-27T04:33:45.489Z,6.63
2023-01-27T04:37:58.065Z,6.50
2023-01-27T04:42:10.317Z,6.42
2023-01-27T04:46:23.078Z,6.31
2023-01-27T04:50:36.197Z,6.22
2023-01-27T04:54:48.490Z,6.15
2023-01-27T04:59:02.881Z,6.06
2023-01-27T05:03:19.061Z,5.99
2023-01-27T05:07:32.567Z,6.01
2023-01-27T05:11:44.934Z,5.94
2023-01-27T05:16:20.170Z,5.89
2023-01-27T05:20:32.584Z,6.09
2023-01-27T05:24:46.876Z,6.03
2023-01-27T05:29:01.018Z,6.02
2023-01-27T05:33:14.025Z,6.00
2023-01-27T05:37:30.113Z,6.10
2023-01-27T05:41:45.043Z,6.25
2023-01-27T05:46:08.228Z,6.31
2023-01-27T05:50:20.555Z,6.44
2023-01-27T05:54:34.005Z,6.46
2023-01-27T05:58:47.023Z,6.47
2023-01-27T06:02:59.694Z,6.48
2023-01-27T06:07:12.098Z,6.54
2023-01-27T06:11:25.337Z,6.47
2023-01-27T06:15:41.030Z,6.50
2023-01-27T06:19:53.430Z,6.56
2023-01-27T06:24:06.222Z,6.73
2023-01-27T06:28:33.704Z,6.87
2023-01-27T06:32:46.029Z,6.96
2023-01-27T06:36:58.403Z,7.10
2023-01-27T06:41:12.427Z,7.32
2023-01-27T06:45:25.885Z,7.47
2023-01-27T06:49:38.263Z,7.56
2023-01-27T06:53:55.426Z,7.85
2023-01-27T06:58:09.142Z,8.33
2023-01-27T07:02:22.241Z,8.69
2023-01-27T07:06:34.592Z,8.79
2023-01-27T07:10:46.956Z,8.75
2023-01-27T07:14:59.334Z,8.28
2023-01-27T07:19:12.867Z,8.21
2023-01-27T07:23:25.356Z,8.25
2023-01-27T07:27:37.769Z,7.88
2023-01-27T07:31:52.093Z,7.82
2023-01-27T07:36:04.619Z,7.90
2023-01-27T07:40:17.315Z,7.56
2023-01-27T07:44:29.743Z,7.66
2023-01-27T07:48:42.099Z,7.88
2023-01-27T07:52:56.056Z,7.89
2023-01-27T07:57:08.498Z,7.71
2023-01-27T08:01:20.844Z,8.27
2023-01-27T08:05:34.910Z,8.45
2023-01-27T08:09:47.258Z,8.87
2023-01-27T08:14:00.625Z,9.00
2023-01-27T08:18:13.096Z,9.06
2023-01-27T08:22:30.227Z,8.82
2023-01-27T08:26:42.686Z,8.79
2023-01-27T08:30:55.607Z,8.89
2023-01-27T08:35:08.366Z,8.84
2023-01-27T08:39:22.637Z,9.12
2023-01-27T08:43:35.370Z,9.38
2023-01-27T08:47:48.009Z,9.69
2023-01-27T08:52:00.416Z,9.45
2023-01-27T08:56:15.227Z,9.48
2023-01-27T09:00:28.120Z,9.90
2023-01-27T09:04:44.556Z,10.34
2023-01-27T09:09:19.928Z,10.94
2023-01-27T09:13:32.735Z,11.42
2023-01-27T09:17:45.506Z,11.37
2023-01-27T09:21:59.641Z,11.20
2023-01-27T09:26:12.063Z,10.96
2023-01-27T09:30:25.986Z,10.80
2023-01-27T09:34:39.076Z,10.82
2023-01-27T09:39:09.389Z,10.69
2023-01-27T09:43:36.631Z,11.12
2023-01-27T09:47:59.125Z,11.23
2023-01-27T09:52:46.889Z,11.00
2023-01-27T09:57:27.952Z,11.35
2023-01-27T10:01:52.650Z,11.18
2023-01-27T10:06:35.011Z,10.95
2023-01-27T10:10:53.346Z,11.06
2023-01-27T10:15:46.441Z,10.92
2023-01-27T10:20:19.390Z,11.17
2023-01-27T10:24:45.227Z,11.08
2023-01-27T10:29:26.199Z,11.17
2023-01-27T10:33:38.492Z,11.34
2023-01-27T10:38:21.031Z,11.49
2023-01-27T10:43:07.308Z,11.78
2023-01-27T10:47:35.033Z,12.24
2023-01-27T10:52:11.661Z,12.27
2023-01-27T10:56:50.002Z,12.92
2023-01-27T11:01:20.783Z,13.30
2023-01-27T11:05:38.931Z,13.54
2023-01-27T11:10:06.353Z,12.99
2023-01-27T11:14:30.394Z,12.89
2023-01-27T11:18:46.891Z,13.13
2023-01-27T11:23:17.972Z,13.59
2023-01-27T11:27:53.366Z,13.40
2023-01-27T11:32:19.848Z,13.49
2023-01-27T11:36:34.883Z,13.59
2023-01-27T11:40:51.509Z,13.95
2023-01-27T11:45:04.757Z,14.53
2023-01-27T11:49:23.853Z,14.26
2023-01-27T11:53:40.548Z,13.91
2023-01-27T11:58:16.182Z,14.11
2023-01-27T12:02:37.570Z,13.93
2023-01-27T12:07:12.328Z,14.48
2023-01-27T12:11:30.518Z,14.50
2023-01-27T12:16:04.844Z,15.00
2023-01-27T12:20:17.434Z,14.69
2023-01-27T12:24:36.554Z,16.22
2023-01-27T12:28:55.096Z,17.44
2023-01-27T12:33:22.986Z,17.68
2023-01-27T12:37:38.866Z,15.09
2023-01-27T12:41:51.708Z,13.84
2023-01-27T12:46:16.186Z,13.83
2023-01-27T12:50:32.874Z,13.99
2023-01-27T12:54:45.296Z,13.34
2023-01-27T12:58:59.759Z,13.72
2023-01-27T13:03:13.711Z,13.70
2023-01-27T13:07:30.942Z,12.92
2023-01-27T13:11:45.711Z,12.90
2023-01-27T13:16:08.804Z,12.87
2023-01-27T13:20:56.436Z,13.29
2023-01-27T13:25:18.629Z,13.08
2023-01-27T13:29:35.215Z,12.70
2023-01-27T13:33:53.501Z,12.70
2023-01-27T13:38:21.020Z,13.00
2023-01-27T13:42:44.099Z,12.76
2023-01-27T13:47:03.140Z,12.28
2023-01-27T13:51:21.501Z,12.63
2023-01-27T13:56:17.469Z,12.44
2023-01-27T14:00:52.324Z,12.22
2023-01-27T14:05:19.765Z,12.23
2023-01-27T14:09:53.901Z,11.93
2023-01-27T14:14:25.728Z,11.72
2023-01-27T14:18:46.775Z,11.71
2023-01-27T14:23:09.889Z,11.50
2023-01-27T14:27:32.906Z,11.76
2023-01-27T14:32:03.493Z,11.70
2023-01-27T14:36:21.901Z,11.54
2023-01-27T14:40:54.224Z,11.54
2023-01-27T14:45:32.111Z,11.48
2023-01-27T14:50:06.279Z,11.14
2023-01-27T14:54:29.392Z,11.32
2023-01-27T14:58:41.692Z,11.26
2023-01-27T15:03:32.964Z,11.03
2023-01-27T15:08:01.011Z,10.93
2023-01-27T15:12:44.519Z,11.00
2023-01-27T15:17:53.958Z,10.59
2023-01-27T15:22:33.752Z,10.64
2023-01-27T15:26:48.252Z,10.62
2023-01-27T15:31:07.183Z,10.43
2023-01-27T15:35:22.416Z,10.02
2023-01-27T15:40:15.700Z,10.03
2023-01-27T15:44:40.960Z,9.87
2023-01-27T15:48:55.619Z,9.80
2023-01-27T15:53:32.808Z,9.14
2023-01-27T15:57:45.431Z,9.47
2023-01-27T16:02:17.497Z,9.41
2023-01-27T16:06:31.499Z,9.44
2023-01-27T16:10:45.359Z,9.31
2023-01-27T16:15:16.173Z,9.22
2023-01-27T16:19:38.928Z,9.11
2023-01-27T16:24:01.973Z,9.11
2023-01-27T16:28:18.887Z,9.23
2023-01-27T16:32:41.672Z,9.27
2023-01-27T16:37:15.894Z,9.34
2023-01-27T16:41:32.949Z,9.38
2023-01-27T16:45:53.874Z,9.48
2023-01-27T16:50:06.851Z,9.47
2023-01-27T16:54:26.521Z,9.61
2023-01-27T16:58:46.730Z,9.60
2023-01-27T17:03:06.335Z,9.58
2023-01-27T17:07:19.013Z,9.46
2023-01-27T17:11:35.821Z,9.38
2023-01-27T17:15:57.785Z,9.35
2023-01-27T17:20:30.622Z,9.23
2023-01-27T17:24:53.062Z,9.33
2023-01-27T17:29:05.634Z,9.19
2023-01-27T17:33:21.059Z,9.13
2023-01-27T17:37:33.612Z,8.96
2023-01-27T17:41:46.443Z,9.12
2023-01-27T17:46:20.438Z,8.97
2023-01-27T17:50:39.820Z,8.73
2023-01-27T17:54:52.589Z,8.70
2023-01-27T17:59:21.294Z,8.69
2023-01-27T18:03:36.841Z,8.59
2023-01-27T18:07:49.662Z,8.22
2023-01-27T18:12:05.411Z,7.96
2023-01-27T18:16:20.648Z,7.78
2023-01-27T18:20:36.435Z,7.52
2023-01-27T18:24:55.372Z,7.58
2023-01-27T18:29:21.317Z,7.24
2023-01-27T18:33:34.296Z,7.07
2023-01-27T18:37:58.895Z,6.91
2023-01-27T18:42:15.542Z,6.89
2023-01-27T18:46:28.355Z,6.88
2023-01-27T18:50:46.272Z,7.30
2023-01-27T18:55:03.032Z,7.17
2023-01-27T18:59:15.458Z,6.90
2023-01-27T19:03:30.859Z,6.64
2023-01-27T19:07:43.288Z,7.06
2023-01-27T19:11:57.430Z,6.82
2023-01-27T19:20:30.644Z,7.32
2023-01-27T19:24:47.429Z,7.22
2023-01-27T19:28:59.892Z,7.23
2023-01-27T19:33:25.543Z,7.47
2023-01-27T19:37:39.025Z,7.28
2023-01-27T19:41:51.805Z,6.89
2023-01-27T19:46:13.917Z,7.25
2023-01-27T19:50:28.838Z,7.20
2023-01-27T19:54:41.212Z,7.37
2023-01-27T19:58:54.444Z,7.14
2023-01-27T20:03:07.902Z,7.05
2023-01-27T20:07:20.318Z,6.94
2023-01-27T20:11:37.216Z,6.89
2023-01-27T20:15:49.726Z,6.85
2023-01-27T20:20:02.337Z,6.85
2023-01-27T20:24:20.180Z,6.81
2023-01-27T20:28:32.671Z,6.85
2023-01-27T20:32:45.456Z,6.73
2023-01-27T20:36:58.065Z,6.74
2023-01-27T20:41:14.437Z,6.68
2023-01-27T20:45:26.840Z,6.72
2023-01-27T20:49:39.611Z,6.56
2023-01-27T20:53:52.249Z,6.55
2023-01-27T20:58:04.756Z,6.51
2023-01-27T21:02:17.356Z,6.44
2023-01-27T21:06:29.956Z,6.35
2023-01-27T21:10:43.431Z,6.28
2023-01-27T21:14:59.306Z,6.26
2023-01-27T21:19:12.475Z,6.19
2023-01-27T21:23:29.322Z,6.00
2023-01-27T21:27:48.221Z,5.85
2023-01-27T21:32:01.460Z,5.84
2023-01-27T21:36:14.603Z,5.87
2023-01-27T21:40:27.542Z,5.78
2023-01-27T21:44:58.206Z,5.86
2023-01-27T21:49:10.402Z,5.89
2023-01-27T21:53:23.845Z,5.68
2023-01-27T21:57:36.664Z,5.46
2023-01-27T22:01:49.103Z,5.97
2023-01-27T22:06:08.580Z,5.84
2023-01-27T22:10:26.723Z,5.69
2023-01-27T22:14:39.060Z,6.05
2023-01-27T22:18:51.461Z,5.84
2023-01-27T22:23:03.816Z,6.04
2023-01-27T22:27:16.184Z,6.02
2023-01-27T22:31:28.730Z,6.19
2023-01-27T22:35:41.387Z,5.96
2023-01-27T22:39:53.684Z,5.87
2023-01-27T22:44:06.206Z,5.85
2023-01-27T22:48:18.522Z,5.88
2023-01-27T22:52:30.960Z,5.74
2023-01-27T22:56:43.590Z,5.73
2023-01-27T23:00:56.484Z,5.75
2023-01-27T23:05:10.151Z,5.79
2023-01-27T23:09:23.195Z,5.75
2023-01-27T23:13:36.702Z,5.96
2023-01-27T23:17:49.946Z,5.80
2023-01-27T23:22:03.547Z,5.97
2023-01-27T23:26:17.267Z,5.91
2023-01-27T23:30:29.712Z,5.94
2023-01-27T23:34:42.157Z,5.84
2023-01-27T23:38:54.484Z,6.16
2023-01-27T23:43:07.120Z,5.85
2023-01-27T23:47:19.454Z,5.68
2023-01-27T23:51:32.181Z,5.58
2023-01-27T23:55:44.962Z,5.48
2023-01-27T23:59:57.270Z,5.47
